This is the latest recevied weather packets stored in our database for station/object EA6AMI-5. If no packets are shown the sender has not sent any weather packets the latest 10 day(s).
| Time | Temp. | Humidity | Pressure | Rain* | Wind** | Luminosity | Snow |
|---|---|---|---|---|---|---|---|
| 1787563084 | 26.67° C | 84% | 1014.9 hPa | 1.02 mm | - | 67 W/m² | - |
| 1787562544 | 27.22° C | 83% | 1015.5 hPa | 1.02 mm | - | 47 W/m² | - |
| 1787562003 | 27.22° C | 81% | 1015.4 hPa | 1.02 mm | - | 81 W/m² | - |
| 1787561644 | 28.33° C | 77% | 1016.3 hPa | 0.51 mm | - | 68 W/m² | - |
| 1787561107 | 28.89° C | 71% | 1016 hPa | 0 mm | - | 65 W/m² | - |
| 1787560564 | 27.78° C | 72% | 1015.3 hPa | 0 mm | - | 367 W/m² | - |
| 1787560023 | 28.33° C | 72% | 1015.7 hPa | 0 mm | - | 371 W/m² | - |
| 1787559484 | 26.67° C | 75% | 1015.4 hPa | 0 mm | - | 444 W/m² | - |
| 1787558943 | 27.22° C | 75% | 1015.4 hPa | 0 mm | - | 207 W/m² | - |
| 1787558403 | 27.22° C | 74% | 1015.4 hPa | 0 mm | - | 162 W/m² | - |
| 1787558044 | 27.22° C | 73% | 1015.2 hPa | 0 mm | - | 204 W/m² | - |
| 1787557503 | 27.22° C | 75% | 1014.9 hPa | 0 mm | - | 164 W/m² | - |
| 1787556964 | 26.67° C | 75% | 1015.1 hPa | 0 mm | - | 201 W/m² | - |
| 1787556424 | 26.67° C | 76% | 1015.1 hPa | 0 mm | - | 167 W/m² | - |
| 1787555884 | 26.11° C | 77% | 1015.6 hPa | 0 mm | - | 157 W/m² | - |
| 1787555344 | 25.56° C | 78% | 1015.7 hPa | 0 mm | - | 166 W/m² | - |
| 1787554803 | 25.56° C | 77% | 1015.6 hPa | 0 mm | - | 85 W/m² | - |
| 1787554444 | 25.56° C | 75% | 1015.7 hPa | 0 mm | - | 114 W/m² | - |
| 1787553904 | 25.56° C | 73% | 1015.6 hPa | 0 mm | - | 46 W/m² | - |
| 1787553363 | 25.56° C | 74% | 1015.3 hPa | 0 mm | - | 65 W/m² | - |
| 1787552823 | 24.44° C | 77% | 1015.1 hPa | 0 mm | - | 87 W/m² | - |
| 1787552283 | 24.44° C | 77% | 1015.1 hPa | 0 mm | - | 66 W/m² | - |
| 1787551743 | 23.89° C | 77% | 1015.3 hPa | 0 mm | - | 45 W/m² | - |
| 1787551204 | 23.89° C | 77% | 1015.6 hPa | 0 mm | - | 33 W/m² | - |
| 1787550843 | 23.89° C | 76% | 1015.3 hPa | 0 mm | - | 32 W/m² | - |
* Rain latest hour (hover to see other rain measurements)
** Current wind speed in m/s (hover to see current wind gust speed)